sensor_id;sensor_type;location;lat;lon;timestamp;P1;durP1;ratioP1;P2;durP2;ratioP2
36443;SDS011;24692;45.642;13.806;2024-02-15T00:01:30;6.57;;;3.93;;
36443;SDS011;24692;45.642;13.806;2024-02-15T00:03:56;6.67;;;3.33;;
36443;SDS011;24692;45.642;13.806;2024-02-15T00:06:22;7.13;;;3.20;;
36443;SDS011;24692;45.642;13.806;2024-02-15T00:08:48;3.80;;;3.27;;
36443;SDS011;24692;45.642;13.806;2024-02-15T00:11:17;4.53;;;3.00;;
36443;SDS011;24692;45.642;13.806;2024-02-15T00:13:43;5.00;;;2.97;;
36443;SDS011;24692;45.642;13.806;2024-02-15T00:16:12;5.50;;;3.33;;
36443;SDS011;24692;45.642;13.806;2024-02-15T00:18:39;5.27;;;2.90;;
36443;SDS011;24692;45.642;13.806;2024-02-15T00:21:05;3.47;;;2.70;;
36443;SDS011;24692;45.642;13.806;2024-02-15T00:23:31;5.33;;;3.17;;
36443;SDS011;24692;45.642;13.806;2024-02-15T00:25:57;5.50;;;3.10;;
36443;SDS011;24692;45.642;13.806;2024-02-15T00:28:23;5.07;;;3.00;;
36443;SDS011;24692;45.642;13.806;2024-02-15T00:30:49;4.33;;;3.00;;
36443;SDS011;24692;45.642;13.806;2024-02-15T00:33:15;3.30;;;2.67;;
36443;SDS011;24692;45.642;13.806;2024-02-15T00:35:41;4.47;;;2.50;;
36443;SDS011;24692;45.642;13.806;2024-02-15T00:38:07;4.67;;;2.80;;
36443;SDS011;24692;45.642;13.806;2024-02-15T00:40:33;7.83;;;2.77;;
36443;SDS011;24692;45.642;13.806;2024-02-15T00:42:58;4.30;;;3.00;;
36443;SDS011;24692;45.642;13.806;2024-02-15T00:45:24;4.67;;;3.00;;
36443;SDS011;24692;45.642;13.806;2024-02-15T00:47:50;6.30;;;2.70;;
36443;SDS011;24692;45.642;13.806;2024-02-15T00:50:16;3.83;;;2.70;;
36443;SDS011;24692;45.642;13.806;2024-02-15T00:52:42;4.37;;;2.87;;
36443;SDS011;24692;45.642;13.806;2024-02-15T00:55:08;4.93;;;2.97;;
36443;SDS011;24692;45.642;13.806;2024-02-15T00:57:33;4.77;;;2.63;;
36443;SDS011;24692;45.642;13.806;2024-02-15T00:59:59;3.50;;;2.80;;
36443;SDS011;24692;45.642;13.806;2024-02-15T01:02:28;3.37;;;2.43;;
36443;SDS011;24692;45.642;13.806;2024-02-15T01:04:54;4.60;;;2.80;;
36443;SDS011;24692;45.642;13.806;2024-02-15T01:07:22;3.70;;;2.53;;
36443;SDS011;24692;45.642;13.806;2024-02-15T01:09:52;3.47;;;2.50;;
36443;SDS011;24692;45.642;13.806;2024-02-15T01:12:18;3.53;;;2.77;;
36443;SDS011;24692;45.642;13.806;2024-02-15T01:14:44;5.27;;;2.77;;
36443;SDS011;24692;45.642;13.806;2024-02-15T01:17:09;5.73;;;2.70;;
36443;SDS011;24692;45.642;13.806;2024-02-15T01:19:35;4.60;;;3.20;;
36443;SDS011;24692;45.642;13.806;2024-02-15T01:22:00;4.67;;;2.70;;
36443;SDS011;24692;45.642;13.806;2024-02-15T01:24:27;5.07;;;2.47;;
36443;SDS011;24692;45.642;13.806;2024-02-15T01:26:53;4.80;;;2.80;;
36443;SDS011;24692;45.642;13.806;2024-02-15T01:29:19;5.00;;;2.73;;
36443;SDS011;24692;45.642;13.806;2024-02-15T01:31:45;4.13;;;2.83;;
36443;SDS011;24692;45.642;13.806;2024-02-15T01:34:11;10.60;;;3.37;;
36443;SDS011;24692;45.642;13.806;2024-02-15T01:36:36;3.87;;;3.00;;
36443;SDS011;24692;45.642;13.806;2024-02-15T01:39:02;3.27;;;2.80;;
36443;SDS011;24692;45.642;13.806;2024-02-15T01:41:28;3.23;;;2.70;;
36443;SDS011;24692;45.642;13.806;2024-02-15T01:43:53;6.97;;;3.00;;
36443;SDS011;24692;45.642;13.806;2024-02-15T01:46:20;5.33;;;3.00;;
36443;SDS011;24692;45.642;13.806;2024-02-15T01:48:46;5.07;;;3.17;;
36443;SDS011;24692;45.642;13.806;2024-02-15T01:51:13;4.50;;;3.00;;
36443;SDS011;24692;45.642;13.806;2024-02-15T01:53:41;4.33;;;2.93;;
36443;SDS011;24692;45.642;13.806;2024-02-15T01:56:07;3.83;;;2.93;;
36443;SDS011;24692;45.642;13.806;2024-02-15T01:58:33;3.20;;;2.90;;
36443;SDS011;24692;45.642;13.806;2024-02-15T02:01:00;4.50;;;2.97;;
36443;SDS011;24692;45.642;13.806;2024-02-15T02:03:26;4.43;;;3.00;;
36443;SDS011;24692;45.642;13.806;2024-02-15T02:05:52;3.10;;;2.60;;
36443;SDS011;24692;45.642;13.806;2024-02-15T02:08:18;4.53;;;3.07;;
36443;SDS011;24692;45.642;13.806;2024-02-15T02:10:44;3.47;;;2.90;;
36443;SDS011;24692;45.642;13.806;2024-02-15T02:13:11;7.77;;;3.20;;
36443;SDS011;24692;45.642;13.806;2024-02-15T02:15:37;4.87;;;3.33;;
36443;SDS011;24692;45.642;13.806;2024-02-15T02:18:03;3.60;;;2.90;;
36443;SDS011;24692;45.642;13.806;2024-02-15T02:20:34;5.20;;;3.07;;
36443;SDS011;24692;45.642;13.806;2024-02-15T02:23:04;5.40;;;3.23;;
36443;SDS011;24692;45.642;13.806;2024-02-15T02:25:33;3.60;;;2.70;;
36443;SDS011;24692;45.642;13.806;2024-02-15T02:27:59;5.30;;;3.00;;
36443;SDS011;24692;45.642;13.806;2024-02-15T02:30:26;5.23;;;3.03;;
36443;SDS011;24692;45.642;13.806;2024-02-15T02:32:54;4.70;;;3.43;;
36443;SDS011;24692;45.642;13.806;2024-02-15T02:35:24;5.03;;;2.90;;
36443;SDS011;24692;45.642;13.806;2024-02-15T02:37:50;10.40;;;3.47;;
36443;SDS011;24692;45.642;13.806;2024-02-15T02:40:18;7.00;;;3.00;;
36443;SDS011;24692;45.642;13.806;2024-02-15T02:45:12;5.97;;;3.97;;
36443;SDS011;24692;45.642;13.806;2024-02-15T02:47:38;4.33;;;2.70;;
36443;SDS011;24692;45.642;13.806;2024-02-15T02:50:04;4.63;;;2.80;;
36443;SDS011;24692;45.642;13.806;2024-02-15T02:52:30;3.93;;;3.13;;
36443;SDS011;24692;45.642;13.806;2024-02-15T02:54:56;5.53;;;3.07;;
36443;SDS011;24692;45.642;13.806;2024-02-15T02:57:23;4.80;;;3.10;;
36443;SDS011;24692;45.642;13.806;2024-02-15T02:59:48;4.20;;;3.10;;
36443;SDS011;24692;45.642;13.806;2024-02-15T03:02:14;4.00;;;2.97;;
36443;SDS011;24692;45.642;13.806;2024-02-15T03:04:40;5.07;;;3.07;;
36443;SDS011;24692;45.642;13.806;2024-02-15T03:07:05;4.57;;;3.20;;
36443;SDS011;24692;45.642;13.806;2024-02-15T03:09:31;4.13;;;2.90;;
36443;SDS011;24692;45.642;13.806;2024-02-15T03:11:58;5.83;;;2.90;;
36443;SDS011;24692;45.642;13.806;2024-02-15T03:14:26;4.47;;;2.73;;
36443;SDS011;24692;45.642;13.806;2024-02-15T03:16:52;3.67;;;3.00;;
36443;SDS011;24692;45.642;13.806;2024-02-15T03:19:20;4.37;;;2.90;;
36443;SDS011;24692;45.642;13.806;2024-02-15T03:21:47;3.87;;;2.73;;
36443;SDS011;24692;45.642;13.806;2024-02-15T03:24:13;5.40;;;3.03;;
36443;SDS011;24692;45.642;13.806;2024-02-15T03:26:39;3.20;;;2.67;;
36443;SDS011;24692;45.642;13.806;2024-02-15T03:29:05;3.33;;;2.43;;
36443;SDS011;24692;45.642;13.806;2024-02-15T03:31:32;5.80;;;2.57;;
36443;SDS011;24692;45.642;13.806;2024-02-15T03:34:02;3.70;;;2.53;;
36443;SDS011;24692;45.642;13.806;2024-02-15T03:36:31;3.90;;;2.50;;
36443;SDS011;24692;45.642;13.806;2024-02-15T03:38:57;4.70;;;2.67;;
36443;SDS011;24692;45.642;13.806;2024-02-15T03:41:22;6.20;;;2.90;;
36443;SDS011;24692;45.642;13.806;2024-02-15T03:43:48;4.93;;;2.70;;
36443;SDS011;24692;45.642;13.806;2024-02-15T03:46:14;3.70;;;2.50;;
36443;SDS011;24692;45.642;13.806;2024-02-15T03:48:43;4.83;;;3.17;;
36443;SDS011;24692;45.642;13.806;2024-02-15T03:51:09;4.27;;;3.10;;
36443;SDS011;24692;45.642;13.806;2024-02-15T03:53:35;4.70;;;2.80;;
36443;SDS011;24692;45.642;13.806;2024-02-15T03:56:03;5.27;;;2.40;;
36443;SDS011;24692;45.642;13.806;2024-02-15T03:58:29;3.70;;;2.40;;
36443;SDS011;24692;45.642;13.806;2024-02-15T04:00:57;3.37;;;2.60;;
36443;SDS011;24692;45.642;13.806;2024-02-15T04:03:24;3.90;;;2.60;;
36443;SDS011;24692;45.642;13.806;2024-02-15T04:05:49;2.90;;;2.60;;
36443;SDS011;24692;45.642;13.806;2024-02-15T04:08:15;3.57;;;2.80;;
36443;SDS011;24692;45.642;13.806;2024-02-15T04:10:42;3.70;;;2.80;;
36443;SDS011;24692;45.642;13.806;2024-02-15T04:13:07;3.80;;;2.50;;
36443;SDS011;24692;45.642;13.806;2024-02-15T04:15:33;6.30;;;2.90;;
36443;SDS011;24692;45.642;13.806;2024-02-15T04:17:59;5.10;;;3.40;;
36443;SDS011;24692;45.642;13.806;2024-02-15T04:20:25;4.57;;;3.40;;
36443;SDS011;24692;45.642;13.806;2024-02-15T04:22:51;4.67;;;2.90;;
36443;SDS011;24692;45.642;13.806;2024-02-15T04:25:18;3.53;;;2.87;;
36443;SDS011;24692;45.642;13.806;2024-02-15T04:27:48;4.27;;;2.77;;
36443;SDS011;24692;45.642;13.806;2024-02-15T04:30:14;3.50;;;3.00;;
36443;SDS011;24692;45.642;13.806;2024-02-15T04:32:43;4.63;;;3.53;;
36443;SDS011;24692;45.642;13.806;2024-02-15T04:35:08;3.40;;;3.10;;
36443;SDS011;24692;45.642;13.806;2024-02-15T04:37:35;5.30;;;3.40;;
36443;SDS011;24692;45.642;13.806;2024-02-15T04:40:02;5.70;;;3.30;;
36443;SDS011;24692;45.642;13.806;2024-02-15T04:42:38;4.83;;;3.47;;
36443;SDS011;24692;45.642;13.806;2024-02-15T04:45:09;6.60;;;3.40;;
36443;SDS011;24692;45.642;13.806;2024-02-15T04:47:37;5.30;;;3.57;;
36443;SDS011;24692;45.642;13.806;2024-02-15T04:50:05;6.63;;;3.60;;
36443;SDS011;24692;45.642;13.806;2024-02-15T04:52:32;4.17;;;3.37;;
36443;SDS011;24692;45.642;13.806;2024-02-15T04:54:57;4.70;;;3.33;;
36443;SDS011;24692;45.642;13.806;2024-02-15T04:57:24;4.47;;;3.50;;
36443;SDS011;24692;45.642;13.806;2024-02-15T04:59:53;3.90;;;2.90;;
36443;SDS011;24692;45.642;13.806;2024-02-15T05:02:19;4.37;;;3.30;;
36443;SDS011;24692;45.642;13.806;2024-02-15T05:04:45;5.53;;;3.10;;
36443;SDS011;24692;45.642;13.806;2024-02-15T05:07:10;5.10;;;3.40;;
36443;SDS011;24692;45.642;13.806;2024-02-15T05:09:36;4.90;;;3.53;;
36443;SDS011;24692;45.642;13.806;2024-02-15T05:12:02;5.97;;;3.40;;
36443;SDS011;24692;45.642;13.806;2024-02-15T05:14:29;3.73;;;3.20;;
36443;SDS011;24692;45.642;13.806;2024-02-15T05:16:54;4.50;;;3.43;;
36443;SDS011;24692;45.642;13.806;2024-02-15T05:19:20;5.73;;;3.23;;
36443;SDS011;24692;45.642;13.806;2024-02-15T05:21:46;5.90;;;4.03;;
36443;SDS011;24692;45.642;13.806;2024-02-15T05:24:13;4.63;;;3.17;;
36443;SDS011;24692;45.642;13.806;2024-02-15T05:26:40;4.97;;;3.30;;
36443;SDS011;24692;45.642;13.806;2024-02-15T05:29:07;4.97;;;3.47;;
36443;SDS011;24692;45.642;13.806;2024-02-15T05:31:35;5.33;;;3.20;;
36443;SDS011;24692;45.642;13.806;2024-02-15T05:34:03;5.83;;;3.10;;
36443;SDS011;24692;45.642;13.806;2024-02-15T05:36:30;6.57;;;3.70;;
36443;SDS011;24692;45.642;13.806;2024-02-15T05:38:56;6.93;;;3.33;;
36443;SDS011;24692;45.642;13.806;2024-02-15T05:41:23;5.30;;;3.23;;
36443;SDS011;24692;45.642;13.806;2024-02-15T05:43:49;7.40;;;3.53;;
36443;SDS011;24692;45.642;13.806;2024-02-15T05:46:17;7.63;;;3.50;;
36443;SDS011;24692;45.642;13.806;2024-02-15T05:48:43;4.40;;;3.57;;
36443;SDS011;24692;45.642;13.806;2024-02-15T05:51:09;4.83;;;3.40;;
36443;SDS011;24692;45.642;13.806;2024-02-15T05:53:35;6.00;;;3.53;;
36443;SDS011;24692;45.642;13.806;2024-02-15T05:56:07;4.57;;;3.67;;
36443;SDS011;24692;45.642;13.806;2024-02-15T05:58:35;7.20;;;3.53;;
36443;SDS011;24692;45.642;13.806;2024-02-15T06:01:01;5.90;;;3.43;;
36443;SDS011;24692;45.642;13.806;2024-02-15T06:03:31;5.70;;;3.50;;
36443;SDS011;24692;45.642;13.806;2024-02-15T06:05:59;3.63;;;2.97;;
36443;SDS011;24692;45.642;13.806;2024-02-15T06:08:29;3.87;;;3.00;;
36443;SDS011;24692;45.642;13.806;2024-02-15T06:10:56;4.47;;;3.30;;
36443;SDS011;24692;45.642;13.806;2024-02-15T06:13:22;4.73;;;3.20;;
36443;SDS011;24692;45.642;13.806;2024-02-15T06:15:48;6.33;;;3.30;;
36443;SDS011;24692;45.642;13.806;2024-02-15T06:18:28;4.43;;;3.13;;
36443;SDS011;24692;45.642;13.806;2024-02-15T06:20:54;4.73;;;3.50;;
36443;SDS011;24692;45.642;13.806;2024-02-15T06:23:27;8.50;;;4.13;;
36443;SDS011;24692;45.642;13.806;2024-02-15T06:25:53;6.23;;;3.90;;
36443;SDS011;24692;45.642;13.806;2024-02-15T06:28:21;5.47;;;3.70;;
36443;SDS011;24692;45.642;13.806;2024-02-15T06:31:09;5.13;;;3.30;;
36443;SDS011;24692;45.642;13.806;2024-02-15T06:33:55;4.70;;;3.00;;
36443;SDS011;24692;45.642;13.806;2024-02-15T06:37:01;5.03;;;3.40;;
36443;SDS011;24692;45.642;13.806;2024-02-15T06:39:44;4.80;;;3.00;;
36443;SDS011;24692;45.642;13.806;2024-02-15T06:42:14;10.20;;;3.23;;
36443;SDS011;24692;45.642;13.806;2024-02-15T06:55:55;3.60;;;2.83;;
36443;SDS011;24692;45.642;13.806;2024-02-15T06:58:21;3.87;;;2.53;;
36443;SDS011;24692;45.642;13.806;2024-02-15T07:00:47;4.67;;;3.07;;
36443;SDS011;24692;45.642;13.806;2024-02-15T07:03:16;4.93;;;2.70;;
36443;SDS011;24692;45.642;13.806;2024-02-15T07:05:42;4.83;;;2.77;;
36443;SDS011;24692;45.642;13.806;2024-02-15T07:08:08;5.03;;;2.43;;
36443;SDS011;24692;45.642;13.806;2024-02-15T07:10:40;4.32;;;2.97;;
36443;SDS011;24692;45.642;13.806;2024-02-15T07:13:09;5.17;;;2.87;;
36443;SDS011;24692;45.642;13.806;2024-02-15T07:15:35;4.72;;;2.70;;
36443;SDS011;24692;45.642;13.806;2024-02-15T07:18:05;3.83;;;2.40;;
36443;SDS011;24692;45.642;13.806;2024-02-15T07:20:35;4.57;;;2.80;;
36443;SDS011;24692;45.642;13.806;2024-02-15T07:23:00;5.72;;;2.75;;
36443;SDS011;24692;45.642;13.806;2024-02-15T07:25:26;4.88;;;2.33;;
36443;SDS011;24692;45.642;13.806;2024-02-15T07:27:53;5.90;;;2.65;;
36443;SDS011;24692;45.642;13.806;2024-02-15T07:30:20;7.28;;;2.70;;
36443;SDS011;24692;45.642;13.806;2024-02-15T07:32:48;6.97;;;2.75;;
36443;SDS011;24692;45.642;13.806;2024-02-15T07:35:14;6.57;;;3.10;;
36443;SDS011;24692;45.642;13.806;2024-02-15T07:37:52;6.00;;;3.20;;
36443;SDS011;24692;45.642;13.806;2024-02-15T07:40:26;6.18;;;3.97;;
36443;SDS011;24692;45.642;13.806;2024-02-15T07:42:56;6.90;;;4.70;;
36443;SDS011;24692;45.642;13.806;2024-02-15T07:45:25;7.13;;;4.57;;
36443;SDS011;24692;45.642;13.806;2024-02-15T07:47:51;6.10;;;4.85;;
36443;SDS011;24692;45.642;13.806;2024-02-15T07:50:17;10.55;;;4.82;;
36443;SDS011;24692;45.642;13.806;2024-02-15T07:52:48;11.75;;;5.30;;
36443;SDS011;24692;45.642;13.806;2024-02-15T07:55:15;6.88;;;4.53;;
36443;SDS011;24692;45.642;13.806;2024-02-15T07:57:41;7.30;;;5.40;;
36443;SDS011;24692;45.642;13.806;2024-02-15T08:00:07;8.63;;;5.80;;
36443;SDS011;24692;45.642;13.806;2024-02-15T08:02:36;8.07;;;5.65;;
36443;SDS011;24692;45.642;13.806;2024-02-15T08:05:06;8.98;;;6.00;;
36443;SDS011;24692;45.642;13.806;2024-02-15T08:07:44;9.07;;;6.15;;
36443;SDS011;24692;45.642;13.806;2024-02-15T08:10:16;6.60;;;5.90;;
36443;SDS011;24692;45.642;13.806;2024-02-15T08:12:43;9.52;;;6.47;;
36443;SDS011;24692;45.642;13.806;2024-02-15T08:15:10;10.38;;;6.90;;
36443;SDS011;24692;45.642;13.806;2024-02-15T08:17:40;9.23;;;6.90;;
36443;SDS011;24692;45.642;13.806;2024-02-15T08:20:10;12.27;;;6.68;;
36443;SDS011;24692;45.642;13.806;2024-02-15T08:22:37;8.70;;;6.70;;
36443;SDS011;24692;45.642;13.806;2024-02-15T08:25:11;10.50;;;7.35;;
36443;SDS011;24692;45.642;13.806;2024-02-15T08:27:41;10.55;;;7.20;;
36443;SDS011;24692;45.642;13.806;2024-02-15T08:30:12;8.93;;;6.80;;
36443;SDS011;24692;45.642;13.806;2024-02-15T08:32:42;11.07;;;7.97;;
36443;SDS011;24692;45.642;13.806;2024-02-15T08:35:10;10.05;;;8.27;;
36443;SDS011;24692;45.642;13.806;2024-02-15T08:37:37;9.00;;;7.45;;
36443;SDS011;24692;45.642;13.806;2024-02-15T08:40:12;10.27;;;6.97;;
36443;SDS011;24692;45.642;13.806;2024-02-15T08:42:40;8.35;;;7.38;;
36443;SDS011;24692;45.642;13.806;2024-02-15T08:45:07;8.40;;;7.50;;
36443;SDS011;24692;45.642;13.806;2024-02-15T08:47:35;8.73;;;7.07;;
36443;SDS011;24692;45.642;13.806;2024-02-15T08:50:05;11.25;;;8.10;;
36443;SDS011;24692;45.642;13.806;2024-02-15T08:52:36;14.20;;;8.52;;
36443;SDS011;24692;45.642;13.806;2024-02-15T08:55:05;11.88;;;8.77;;
36443;SDS011;24692;45.642;13.806;2024-02-15T08:57:34;10.45;;;8.77;;
36443;SDS011;24692;45.642;13.806;2024-02-15T09:00:04;11.55;;;8.93;;
36443;SDS011;24692;45.642;13.806;2024-02-15T09:02:38;10.60;;;8.98;;
36443;SDS011;24692;45.642;13.806;2024-02-15T09:05:14;18.43;;;9.97;;
36443;SDS011;24692;45.642;13.806;2024-02-15T09:07:40;11.07;;;8.85;;
36443;SDS011;24692;45.642;13.806;2024-02-15T09:10:08;12.65;;;8.50;;
36443;SDS011;24692;45.642;13.806;2024-02-15T09:12:35;11.27;;;8.40;;
36443;SDS011;24692;45.642;13.806;2024-02-15T09:15:08;14.50;;;8.00;;
36443;SDS011;24692;45.642;13.806;2024-02-15T09:17:50;11.77;;;8.63;;
36443;SDS011;24692;45.642;13.806;2024-02-15T09:20:16;11.53;;;7.17;;
36443;SDS011;24692;45.642;13.806;2024-02-15T09:22:48;10.60;;;6.45;;
36443;SDS011;24692;45.642;13.806;2024-02-15T09:25:16;11.07;;;8.65;;
36443;SDS011;24692;45.642;13.806;2024-02-15T09:27:42;8.38;;;7.50;;
36443;SDS011;24692;45.642;13.806;2024-02-15T09:30:08;9.85;;;8.13;;
36443;SDS011;24692;45.642;13.806;2024-02-15T09:32:38;8.65;;;7.75;;
36443;SDS011;24692;45.642;13.806;2024-02-15T09:35:04;11.02;;;8.63;;
36443;SDS011;24692;45.642;13.806;2024-02-15T09:37:37;9.65;;;8.27;;
36443;SDS011;24692;45.642;13.806;2024-02-15T09:40:09;12.25;;;9.07;;
36443;SDS011;24692;45.642;13.806;2024-02-15T09:42:37;9.23;;;8.25;;
36443;SDS011;24692;45.642;13.806;2024-02-15T09:45:05;11.05;;;7.72;;
36443;SDS011;24692;45.642;13.806;2024-02-15T09:47:34;10.65;;;8.05;;
36443;SDS011;24692;45.642;13.806;2024-02-15T09:50:01;10.63;;;8.02;;
36443;SDS011;24692;45.642;13.806;2024-02-15T09:52:31;10.52;;;7.30;;
36443;SDS011;24692;45.642;13.806;2024-02-15T09:54:58;9.82;;;7.40;;
36443;SDS011;24692;45.642;13.806;2024-02-15T09:57:27;12.77;;;8.23;;
36443;SDS011;24692;45.642;13.806;2024-02-15T09:59:56;11.63;;;8.63;;
36443;SDS011;24692;45.642;13.806;2024-02-15T10:02:23;11.93;;;9.13;;
36443;SDS011;24692;45.642;13.806;2024-02-15T10:04:50;13.27;;;8.13;;
36443;SDS011;24692;45.642;13.806;2024-02-15T10:07:17;10.90;;;8.90;;
36443;SDS011;24692;45.642;13.806;2024-02-15T10:09:43;12.68;;;8.40;;
36443;SDS011;24692;45.642;13.806;2024-02-15T10:12:09;11.03;;;8.27;;
36443;SDS011;24692;45.642;13.806;2024-02-15T10:14:35;11.47;;;8.87;;
36443;SDS011;24692;45.642;13.806;2024-02-15T10:17:08;9.83;;;8.40;;
36443;SDS011;24692;45.642;13.806;2024-02-15T10:19:38;10.33;;;8.93;;
36443;SDS011;24692;45.642;13.806;2024-02-15T10:22:07;9.57;;;8.03;;
36443;SDS011;24692;45.642;13.806;2024-02-15T10:24:33;12.37;;;8.37;;
36443;SDS011;24692;45.642;13.806;2024-02-15T10:27:03;9.20;;;8.13;;
36443;SDS011;24692;45.642;13.806;2024-02-15T10:29:31;8.57;;;7.65;;
36443;SDS011;24692;45.642;13.806;2024-02-15T10:32:01;9.48;;;7.65;;
36443;SDS011;24692;45.642;13.806;2024-02-15T10:34:29;8.10;;;7.13;;
36443;SDS011;24692;45.642;13.806;2024-02-15T10:37:12;7.93;;;7.13;;
36443;SDS011;24692;45.642;13.806;2024-02-15T10:39:45;10.32;;;6.97;;
36443;SDS011;24692;45.642;13.806;2024-02-15T10:42:12;8.10;;;6.15;;
36443;SDS011;24692;45.642;13.806;2024-02-15T10:44:39;6.05;;;4.63;;
36443;SDS011;24692;45.642;13.806;2024-02-15T10:47:05;10.40;;;6.70;;
36443;SDS011;24692;45.642;13.806;2024-02-15T10:49:36;7.10;;;5.95;;
36443;SDS011;24692;45.642;13.806;2024-02-15T10:52:03;7.70;;;5.80;;
36443;SDS011;24692;45.642;13.806;2024-02-15T10:57:07;8.85;;;6.60;;
36443;SDS011;24692;45.642;13.806;2024-02-15T10:59:35;7.85;;;7.05;;
36443;SDS011;24692;45.642;13.806;2024-02-15T11:05:04;12.70;;;8.88;;
36443;SDS011;24692;45.642;13.806;2024-02-15T11:07:35;14.35;;;9.07;;
36443;SDS011;24692;45.642;13.806;2024-02-15T11:10:02;12.13;;;8.60;;
36443;SDS011;24692;45.642;13.806;2024-02-15T11:12:34;10.73;;;8.80;;
36443;SDS011;24692;45.642;13.806;2024-02-15T11:15:00;11.30;;;8.50;;
36443;SDS011;24692;45.642;13.806;2024-02-15T11:20:06;10.77;;;7.22;;
36443;SDS011;24692;45.642;13.806;2024-02-15T11:22:34;9.30;;;7.35;;
36443;SDS011;24692;45.642;13.806;2024-02-15T11:25:04;14.63;;;7.28;;
36443;SDS011;24692;45.642;13.806;2024-02-15T11:27:37;9.40;;;7.90;;
36443;SDS011;24692;45.642;13.806;2024-02-15T11:30:06;10.82;;;7.70;;
36443;SDS011;24692;45.642;13.806;2024-02-15T11:40:26;8.10;;;6.50;;
36443;SDS011;24692;45.642;13.806;2024-02-15T11:45:26;9.00;;;7.13;;
36443;SDS011;24692;45.642;13.806;2024-02-15T11:47:58;7.75;;;6.70;;
36443;SDS011;24692;45.642;13.806;2024-02-15T11:50:25;7.90;;;7.05;;
36443;SDS011;24692;45.642;13.806;2024-02-15T11:52:52;9.02;;;7.07;;
36443;SDS011;24692;45.642;13.806;2024-02-15T11:55:30;11.98;;;7.32;;
36443;SDS011;24692;45.642;13.806;2024-02-15T11:58:04;9.73;;;7.35;;
36443;SDS011;24692;45.642;13.806;2024-02-15T12:00:32;10.73;;;7.78;;
36443;SDS011;24692;45.642;13.806;2024-02-15T12:03:17;10.07;;;7.60;;
36443;SDS011;24692;45.642;13.806;2024-02-15T12:06:02;11.70;;;7.38;;
36443;SDS011;24692;45.642;13.806;2024-02-15T12:08:47;9.40;;;7.75;;
36443;SDS011;24692;45.642;13.806;2024-02-15T12:11:33;8.60;;;7.70;;
36443;SDS011;24692;45.642;13.806;2024-02-15T12:14:17;8.68;;;7.78;;
36443;SDS011;24692;45.642;13.806;2024-02-15T12:19:47;13.50;;;9.40;;
36443;SDS011;24692;45.642;13.806;2024-02-15T12:22:17;10.95;;;9.43;;
36443;SDS011;24692;45.642;13.806;2024-02-15T12:25:12;11.40;;;7.90;;
36443;SDS011;24692;45.642;13.806;2024-02-15T12:27:46;14.30;;;8.90;;
36443;SDS011;24692;45.642;13.806;2024-02-15T12:30:17;8.80;;;7.70;;
36443;SDS011;24692;45.642;13.806;2024-02-15T12:32:48;10.32;;;8.20;;
36443;SDS011;24692;45.642;13.806;2024-02-15T12:35:15;9.55;;;8.15;;
36443;SDS011;24692;45.642;13.806;2024-02-15T12:43:02;12.20;;;8.65;;
36443;SDS011;24692;45.642;13.806;2024-02-15T12:45:31;9.77;;;8.70;;
36443;SDS011;24692;45.642;13.806;2024-02-15T12:48:03;9.00;;;8.07;;
36443;SDS011;24692;45.642;13.806;2024-02-15T12:50:30;9.90;;;8.18;;
36443;SDS011;24692;45.642;13.806;2024-02-15T12:52:57;12.05;;;8.75;;
36443;SDS011;24692;45.642;13.806;2024-02-15T12:55:27;10.80;;;8.57;;
36443;SDS011;24692;45.642;13.806;2024-02-15T12:57:59;11.40;;;8.57;;
36443;SDS011;24692;45.642;13.806;2024-02-15T13:00:28;11.02;;;7.78;;
36443;SDS011;24692;45.642;13.806;2024-02-15T13:02:57;10.13;;;8.82;;
36443;SDS011;24692;45.642;13.806;2024-02-15T13:05:24;10.70;;;8.32;;
36443;SDS011;24692;45.642;13.806;2024-02-15T13:07:52;9.50;;;8.37;;
36443;SDS011;24692;45.642;13.806;2024-02-15T13:10:27;10.27;;;7.88;;
36443;SDS011;24692;45.642;13.806;2024-02-15T13:12:54;12.30;;;8.23;;
36443;SDS011;24692;45.642;13.806;2024-02-15T13:15:20;9.60;;;8.48;;
36443;SDS011;24692;45.642;13.806;2024-02-15T13:17:51;9.75;;;8.27;;
36443;SDS011;24692;45.642;13.806;2024-02-15T13:20:18;13.15;;;9.27;;
36443;SDS011;24692;45.642;13.806;2024-02-15T13:23:09;13.30;;;8.63;;
36443;SDS011;24692;45.642;13.806;2024-02-15T13:25:50;11.30;;;8.85;;
36443;SDS011;24692;45.642;13.806;2024-02-15T13:28:17;12.27;;;8.75;;
36443;SDS011;24692;45.642;13.806;2024-02-15T13:30:43;13.23;;;9.20;;
36443;SDS011;24692;45.642;13.806;2024-02-15T13:33:13;11.32;;;8.85;;
36443;SDS011;24692;45.642;13.806;2024-02-15T13:35:39;12.65;;;9.43;;
36443;SDS011;24692;45.642;13.806;2024-02-15T13:38:04;11.27;;;8.68;;
36443;SDS011;24692;45.642;13.806;2024-02-15T13:40:30;15.55;;;10.40;;
36443;SDS011;24692;45.642;13.806;2024-02-15T13:42:59;12.65;;;9.68;;
36443;SDS011;24692;45.642;13.806;2024-02-15T13:45:38;12.90;;;8.32;;
36443;SDS011;24692;45.642;13.806;2024-02-15T13:48:05;10.32;;;9.32;;
36443;SDS011;24692;45.642;13.806;2024-02-15T13:50:35;12.18;;;7.97;;
36443;SDS011;24692;45.642;13.806;2024-02-15T13:53:01;10.23;;;8.70;;
36443;SDS011;24692;45.642;13.806;2024-02-15T13:55:28;11.13;;;8.93;;
36443;SDS011;24692;45.642;13.806;2024-02-15T13:57:54;10.18;;;7.80;;
36443;SDS011;24692;45.642;13.806;2024-02-15T14:00:21;10.65;;;8.00;;
36443;SDS011;24692;45.642;13.806;2024-02-15T14:05:13;13.85;;;8.00;;
36443;SDS011;24692;45.642;13.806;2024-02-15T14:07:39;9.18;;;7.03;;
36443;SDS011;24692;45.642;13.806;2024-02-15T14:10:05;13.60;;;7.95;;
36443;SDS011;24692;45.642;13.806;2024-02-15T14:12:32;14.07;;;7.72;;
36443;SDS011;24692;45.642;13.806;2024-02-15T14:14:59;11.05;;;7.32;;
36443;SDS011;24692;45.642;13.806;2024-02-15T14:17:25;10.20;;;8.02;;
36443;SDS011;24692;45.642;13.806;2024-02-15T14:19:51;12.18;;;8.40;;
36443;SDS011;24692;45.642;13.806;2024-02-15T14:22:16;10.25;;;7.38;;
36443;SDS011;24692;45.642;13.806;2024-02-15T14:24:42;11.30;;;7.93;;
36443;SDS011;24692;45.642;13.806;2024-02-15T14:27:11;11.15;;;7.70;;
36443;SDS011;24692;45.642;13.806;2024-02-15T14:29:39;10.55;;;8.10;;
36443;SDS011;24692;45.642;13.806;2024-02-15T14:32:25;13.98;;;7.95;;
36443;SDS011;24692;45.642;13.806;2024-02-15T14:35:09;12.05;;;7.70;;
36443;SDS011;24692;45.642;13.806;2024-02-15T14:37:36;13.52;;;8.27;;
36443;SDS011;24692;45.642;13.806;2024-02-15T14:40:02;11.38;;;7.80;;
36443;SDS011;24692;45.642;13.806;2024-02-15T14:42:28;11.63;;;8.48;;
36443;SDS011;24692;45.642;13.806;2024-02-15T14:44:54;12.38;;;8.45;;
36443;SDS011;24692;45.642;13.806;2024-02-15T14:47:20;10.65;;;8.60;;
36443;SDS011;24692;45.642;13.806;2024-02-15T14:49:47;12.95;;;8.95;;
36443;SDS011;24692;45.642;13.806;2024-02-15T14:52:12;12.45;;;9.13;;
36443;SDS011;24692;45.642;13.806;2024-02-15T14:54:39;16.58;;;9.30;;
36443;SDS011;24692;45.642;13.806;2024-02-15T14:57:05;13.93;;;8.90;;
36443;SDS011;24692;45.642;13.806;2024-02-15T14:59:31;17.45;;;9.65;;
36443;SDS011;24692;45.642;13.806;2024-02-15T15:01:59;15.10;;;10.00;;
36443;SDS011;24692;45.642;13.806;2024-02-15T15:04:33;17.33;;;10.57;;
36443;SDS011;24692;45.642;13.806;2024-02-15T15:07:12;15.15;;;8.98;;
36443;SDS011;24692;45.642;13.806;2024-02-15T15:10:01;11.52;;;8.77;;
36443;SDS011;24692;45.642;13.806;2024-02-15T15:12:45;12.10;;;9.27;;
36443;SDS011;24692;45.642;13.806;2024-02-15T15:15:11;15.70;;;10.50;;
36443;SDS011;24692;45.642;13.806;2024-02-15T15:17:39;12.77;;;9.82;;
36443;SDS011;24692;45.642;13.806;2024-02-15T15:20:05;14.53;;;10.83;;
36443;SDS011;24692;45.642;13.806;2024-02-15T15:22:33;16.03;;;11.70;;